Time;durP1;ratioP1;P1;durP2;ratioP2;P2;SDS_P1;SDS_P2;PMS_P1;PMS_P2;Temp;Humidity;BMP_temperature;BMP_pressure;BME280_temperature;BME280_humidity;BME280_pressure;Samples;Min_cycle;Max_cycle;Signal;HPM_P1;HPM_P2
2021/05/08 00:02:04;;;;;;;1.77;1.67;;;3.50;99.90;;;;;;4974051;28;20208;-73
2021/05/08 00:04:30;;;;;;;1.00;1.00;;;3.40;99.90;;;;;;4974768;28;20619;-73
2021/05/08 00:06:59;;;;;;;1.37;1.27;;;3.30;99.90;;;;;;4973920;28;20594;-73
2021/05/08 00:09:26;;;;;;;1.35;1.25;;;3.40;99.90;;;;;;4974108;28;20166;-73
2021/05/08 00:11:55;;;;;;;0.90;0.90;;;3.50;99.90;;;;;;4974033;28;20189;-73
2021/05/08 00:14:21;;;;;;;1.30;1.20;;;3.50;99.90;;;;;;4976024;28;20184;-73
2021/05/08 00:16:47;;;;;;;2.85;1.63;;;3.50;99.90;;;;;;4977456;28;20187;-73
2021/05/08 00:19:13;;;;;;;1.17;1.10;;;3.50;99.90;;;;;;4977600;28;20168;-72
2021/05/08 00:21:38;;;;;;;1.33;1.13;;;3.20;99.90;;;;;;4977523;28;20204;-73
2021/05/08 00:24:04;;;;;;;0.83;0.83;;;3.10;99.90;;;;;;4976326;28;20343;-73
2021/05/08 00:26:30;;;;;;;1.33;1.23;;;3.30;99.90;;;;;;4977431;28;20177;-73
2021/05/08 00:28:57;;;;;;;1.20;1.10;;;3.40;99.90;;;;;;4977562;28;20188;-73
2021/05/08 00:31:22;;;;;;;1.65;1.55;;;3.40;99.90;;;;;;4977363;28;20674;-73
2021/05/08 00:33:48;;;;;;;1.23;1.20;;;3.40;99.90;;;;;;4977563;28;20259;-73
2021/05/08 00:36:14;;;;;;;1.20;1.10;;;3.20;99.90;;;;;;4977126;28;20412;-73
2021/05/08 00:38:40;;;;;;;1.57;1.20;;;3.30;99.90;;;;;;4977255;28;20180;-73
2021/05/08 00:41:06;;;;;;;0.67;0.67;;;3.40;99.90;;;;;;4977300;28;20208;-72
2021/05/08 00:43:31;;;;;;;1.40;1.30;;;3.50;99.90;;;;;;4977224;28;20184;-73
2021/05/08 00:45:57;;;;;;;1.10;1.10;;;3.60;99.90;;;;;;4977104;28;20545;-73
2021/05/08 00:48:23;;;;;;;1.37;0.97;;;3.40;99.90;;;;;;4977148;28;20176;-73
2021/05/08 00:50:51;;;;;;;0.70;0.70;;;3.50;99.90;;;;;;4975676;28;20270;-73
2021/05/08 00:53:16;;;;;;;1.17;1.08;;;3.70;99.90;;;;;;4977020;28;20184;-73
2021/05/08 00:55:42;;;;;;;1.07;1.00;;;3.50;99.90;;;;;;4976882;28;20181;-73
2021/05/08 00:58:08;;;;;;;1.90;1.17;;;3.70;99.90;;;;;;4977094;28;20485;-73
2021/05/08 01:00:35;;;;;;;0.70;0.70;;;3.70;99.90;;;;;;4976607;28;20507;-73
2021/05/08 01:03:01;;;;;;;2.50;1.20;;;3.40;99.90;;;;;;4976862;28;20169;-73
2021/05/08 01:05:32;;;;;;;1.77;1.50;;;3.50;99.90;;;;;;4977082;28;20536;-72
2021/05/08 01:07:58;;;;;;;1.05;1.05;;;3.50;99.90;;;;;;4976903;28;20169;-73
2021/05/08 01:10:24;;;;;;;0.88;0.88;;;3.50;99.90;;;;;;4976971;28;20622;-73
2021/05/08 01:12:50;;;;;;;1.10;1.00;;;3.30;99.90;;;;;;4976627;28;20304;-72
2021/05/08 01:15:16;;;;;;;1.88;0.95;;;3.50;99.90;;;;;;4976634;28;20487;-73
2021/05/08 01:17:42;;;;;;;0.90;0.90;;;3.50;99.90;;;;;;4976588;28;20257;-73
2021/05/08 01:20:10;;;;;;;1.10;1.10;;;3.60;99.90;;;;;;4976565;28;20440;-73
2021/05/08 01:22:36;;;;;;;0.90;0.90;;;3.50;99.90;;;;;;4976596;28;21090;-73
2021/05/08 01:25:08;;;;;;;2.90;0.88;;;3.60;99.90;;;;;;4976157;28;20749;-73
2021/05/08 01:27:34;;;;;;;1.40;1.20;;;3.60;99.90;;;;;;4976669;28;20584;-73
2021/05/08 01:29:59;;;;;;;0.80;0.80;;;3.50;99.90;;;;;;4975297;28;20275;-72
2021/05/08 01:32:25;;;;;;;1.87;1.67;;;3.60;99.90;;;;;;4976213;28;20352;-73
2021/05/08 01:34:50;;;;;;;1.03;1.00;;;3.50;99.90;;;;;;4976283;28;20227;-72
2021/05/08 01:37:16;;;;;;;0.90;0.90;;;3.60;99.90;;;;;;4976137;28;20642;-72
2021/05/08 01:39:42;;;;;;;5.90;2.03;;;3.50;99.90;;;;;;4976495;28;20205;-73
2021/05/08 01:42:07;;;;;;;0.80;0.80;;;3.50;99.90;;;;;;4976016;28;20236;-73
2021/05/08 01:44:33;;;;;;;0.80;0.80;;;3.60;99.90;;;;;;4976622;28;20193;-73
2021/05/08 01:46:59;;;;;;;1.30;1.20;;;3.50;99.90;;;;;;4975846;28;20169;-73
2021/05/08 01:49:24;;;;;;;1.30;1.20;;;3.50;99.90;;;;;;4976276;28;20624;-73
2021/05/08 01:51:50;;;;;;;0.80;0.80;;;3.50;99.90;;;;;;4975826;28;20295;-73
2021/05/08 01:54:16;;;;;;;0.90;0.90;;;3.50;99.90;;;;;;4976001;28;20204;-73
2021/05/08 01:56:43;;;;;;;1.05;1.05;;;3.50;99.90;;;;;;4975812;28;20184;-73
2021/05/08 01:59:09;;;;;;;2.33;1.10;;;3.50;99.90;;;;;;4975992;28;20690;-73
2021/05/08 02:01:35;;;;;;;1.50;1.40;;;3.50;99.90;;;;;;4974314;28;20221;-73
2021/05/08 02:04:01;;;;;;;0.80;0.50;;;3.40;99.90;;;;;;4975797;28;20171;-73
2021/05/08 02:06:27;;;;;;;1.27;1.13;;;3.40;99.90;;;;;;4975623;28;20470;-72
2021/05/08 02:08:52;;;;;;;2.10;1.70;;;3.40;99.90;;;;;;4975747;28;20875;-73
2021/05/08 02:11:18;;;;;;;1.30;1.30;;;3.40;99.90;;;;;;4974268;28;21003;-73
2021/05/08 02:13:44;;;;;;;0.93;0.93;;;3.20;99.90;;;;;;4975623;28;20267;-73
2021/05/08 02:16:09;;;;;;;1.13;1.03;;;3.10;99.90;;;;;;4975198;28;20172;-72
2021/05/08 02:18:35;;;;;;;1.40;1.27;;;3.20;99.90;;;;;;4975503;28;20177;-73
2021/05/08 02:21:01;;;;;;;1.40;1.40;;;3.30;99.90;;;;;;4975378;28;20212;-73
2021/05/08 02:23:26;;;;;;;0.90;0.80;;;3.40;99.90;;;;;;4975381;28;20169;-73
2021/05/08 02:25:52;;;;;;;1.47;1.00;;;3.40;99.90;;;;;;4975323;28;20199;-73
2021/05/08 02:28:18;;;;;;;1.00;1.00;;;3.50;99.90;;;;;;4975324;28;20223;-72
2021/05/08 02:30:44;;;;;;;1.27;1.17;;;3.50;99.90;;;;;;4973807;28;20188;-73
2021/05/08 02:33:10;;;;;;;1.05;1.05;;;3.40;99.90;;;;;;4973920;28;20177;-73
2021/05/08 02:35:37;;;;;;;1.13;1.03;;;3.50;99.90;;;;;;4974983;28;20177;-72
2021/05/08 02:38:04;;;;;;;1.10;1.10;;;3.40;99.90;;;;;;4974364;28;20420;-72
2021/05/08 02:40:32;;;;;;;1.00;1.00;;;3.30;99.90;;;;;;4975206;28;20192;-73
2021/05/08 02:42:58;;;;;;;1.30;1.30;;;3.30;99.90;;;;;;4975000;28;20232;-73
2021/05/08 02:45:24;;;;;;;0.70;0.70;;;3.20;99.90;;;;;;4975265;28;20181;-72
2021/05/08 02:47:51;;;;;;;1.75;1.10;;;3.10;99.90;;;;;;4974982;28;20165;-73
2021/05/08 02:50:19;;;;;;;0.90;0.90;;;3.20;99.90;;;;;;4975149;28;20238;-73
2021/05/08 02:52:45;;;;;;;3.55;1.25;;;3.10;99.90;;;;;;4974959;28;20662;-73
2021/05/08 02:55:12;;;;;;;0.85;0.85;;;2.90;99.90;;;;;;4974709;28;20251;-73
2021/05/08 02:57:38;;;;;;;1.85;1.75;;;2.90;99.90;;;;;;4975011;28;20188;-73
2021/05/08 03:00:09;;;;;;;1.95;0.85;;;2.90;99.90;;;;;;4974837;28;20191;-73
2021/05/08 03:02:34;;;;;;;1.02;1.02;;;2.80;99.90;;;;;;4974781;28;20208;-73
2021/05/08 03:05:00;;;;;;;0.80;0.80;;;2.90;99.90;;;;;;4974775;28;20751;-73
2021/05/08 03:07:26;;;;;;;0.85;0.85;;;3.00;99.90;;;;;;4974639;28;20176;-73
2021/05/08 03:09:52;;;;;;;1.20;0.97;;;2.90;99.90;;;;;;4974885;28;20536;-73
2021/05/08 03:12:17;;;;;;;1.20;1.10;;;3.00;99.90;;;;;;4974530;28;20191;-73
2021/05/08 03:14:44;;;;;;;1.33;1.23;;;3.00;99.90;;;;;;4974824;28;20657;-73
2021/05/08 03:17:10;;;;;;;1.20;1.10;;;3.00;99.90;;;;;;4974469;28;20176;-72
2021/05/08 03:19:36;;;;;;;1.00;1.00;;;3.00;99.90;;;;;;4974614;28;20181;-72
2021/05/08 03:22:03;;;;;;;0.85;0.77;;;2.90;99.90;;;;;;4974293;28;20204;-73
2021/05/08 03:24:29;;;;;;;1.80;1.38;;;2.60;99.90;;;;;;4974536;28;20173;-73
2021/05/08 03:26:55;;;;;;;1.42;1.30;;;2.70;99.90;;;;;;4974225;28;20222;-73
2021/05/08 03:29:20;;;;;;;3.60;1.80;;;2.50;99.90;;;;;;4974619;28;20626;-73
2021/05/08 03:31:46;;;;;;;0.80;0.80;;;2.40;99.90;;;;;;4974443;28;20199;-73
2021/05/08 03:34:11;;;;;;;2.03;1.23;;;2.60;99.90;;;;;;4974755;28;20270;-73
2021/05/08 03:36:37;;;;;;;1.73;1.30;;;2.70;99.90;;;;;;4974136;28;20263;-73
2021/05/08 03:39:04;;;;;;;0.97;0.97;;;2.90;99.90;;;;;;4974420;28;20191;-73
2021/05/08 03:41:29;;;;;;;2.72;1.70;;;3.00;99.90;;;;;;4974346;28;20210;-72
2021/05/08 03:43:55;;;;;;;1.00;0.90;;;3.00;99.90;;;;;;4974234;28;20179;-72
2021/05/08 03:46:22;;;;;;;1.00;1.00;;;2.80;99.90;;;;;;4974103;28;20204;-73
2021/05/08 03:48:48;;;;;;;0.98;0.98;;;2.80;99.90;;;;;;4975512;28;20168;-72
2021/05/08 03:51:13;;;;;;;1.27;0.93;;;2.70;99.90;;;;;;4978271;28;20219;-74
2021/05/08 03:53:39;;;;;;;1.20;1.20;;;2.70;99.90;;;;;;4978167;28;20177;-73
2021/05/08 03:56:05;;;;;;;1.37;1.27;;;2.80;99.90;;;;;;4977231;28;20200;-73
2021/05/08 03:58:32;;;;;;;1.75;1.65;;;2.70;99.90;;;;;;4976666;28;20187;-72
2021/05/08 04:00:58;;;;;;;1.58;1.48;;;2.60;99.90;;;;;;4977687;28;20218;-73
2021/05/08 04:03:25;;;;;;;1.23;1.20;;;2.40;99.90;;;;;;4978353;28;20176;-72
2021/05/08 04:05:51;;;;;;;2.03;1.77;;;2.70;99.90;;;;;;4977866;28;20173;-73
2021/05/08 04:08:17;;;;;;;1.00;1.00;;;2.70;99.90;;;;;;4978111;28;20226;-73
2021/05/08 04:10:50;;;;;;;0.80;0.80;;;2.80;99.90;;;;;;4976583;28;20191;-73
2021/05/08 04:13:16;;;;;;;2.05;1.30;;;2.70;99.90;;;;;;4976481;28;20246;-73
2021/05/08 04:15:43;;;;;;;1.35;1.15;;;2.70;99.90;;;;;;4977865;28;20581;-73
2021/05/08 04:18:10;;;;;;;1.50;1.17;;;2.90;99.90;;;;;;4977730;28;20180;-73
2021/05/08 04:20:36;;;;;;;3.88;1.30;;;3.00;99.90;;;;;;4977644;28;20187;-72
2021/05/08 04:23:01;;;;;;;1.27;1.03;;;3.00;99.90;;;;;;4978072;28;20220;-72
2021/05/08 04:25:28;;;;;;;1.10;1.10;;;2.90;99.90;;;;;;4977499;28;20410;-73
2021/05/08 04:27:53;;;;;;;1.30;1.20;;;3.10;99.90;;;;;;4977579;28;20591;-73
2021/05/08 04:30:20;;;;;;;1.17;0.90;;;3.20;99.90;;;;;;4977529;28;20260;-72
2021/05/08 04:32:46;;;;;;;0.90;0.90;;;3.30;99.90;;;;;;4977541;28;20221;-72
2021/05/08 04:35:12;;;;;;;3.80;1.67;;;3.40;99.90;;;;;;4977462;28;20243;-73
2021/05/08 04:37:38;;;;;;;1.38;1.10;;;3.40;99.90;;;;;;4976076;28;20927;-73
2021/05/08 04:40:05;;;;;;;0.80;0.80;;;3.40;99.90;;;;;;4977328;28;20240;-72
2021/05/08 04:42:32;;;;;;;2.50;1.50;;;3.20;99.90;;;;;;4977108;28;20209;-72
2021/05/08 04:44:57;;;;;;;1.13;0.95;;;3.30;99.90;;;;;;4977154;28;20197;-72
2021/05/08 04:47:23;;;;;;;1.00;1.00;;;3.50;99.90;;;;;;4977149;28;20558;-72
2021/05/08 04:49:51;;;;;;;1.07;1.07;;;3.60;99.90;;;;;;4977274;28;20172;-72
2021/05/08 04:52:17;;;;;;;2.05;1.45;;;3.90;99.90;;;;;;4977184;28;20192;-72
2021/05/08 04:54:42;;;;;;;1.50;1.40;;;4.50;99.90;;;;;;4977035;28;20606;-72
2021/05/08 04:57:08;;;;;;;0.87;0.87;;;5.60;99.60;;;;;;4975590;28;20175;-73
2021/05/08 04:59:34;;;;;;;1.20;1.10;;;6.80;97.50;;;;;;4976626;28;20188;-73
2021/05/08 05:02:01;;;;;;;3.57;2.60;;;7.60;94.50;;;;;;4975846;28;20213;-73
2021/05/08 05:04:27;;;;;;;3.25;1.65;;;8.20;92.70;;;;;;4976879;28;20261;-72
2021/05/08 05:06:52;;;;;;;2.13;1.70;;;8.70;91.30;;;;;;4976590;28;20711;-73
2021/05/08 05:09:18;;;;;;;1.40;1.30;;;9.30;91.10;;;;;;4976532;28;20176;-73
2021/05/08 05:11:43;;;;;;;0.70;0.70;;;10.20;87.30;;;;;;4976877;28;20197;-74
2021/05/08 05:14:09;;;;;;;1.07;1.00;;;11.20;83.90;;;;;;4975159;28;20204;-73
2021/05/08 05:16:35;;;;;;;0.80;0.80;;;12.20;78.90;;;;;;4975086;28;20285;-74
2021/05/08 05:19:00;;;;;;;1.57;1.47;;;12.70;72.70;;;;;;4976218;28;20173;-73
2021/05/08 05:21:26;;;;;;;2.10;1.23;;;13.10;68.30;;;;;;4976571;28;20212;-74
2021/05/08 05:23:51;;;;;;;1.50;1.30;;;13.60;65.90;;;;;;4976595;28;20180;-74
2021/05/08 05:26:17;;;;;;;1.50;1.37;;;14.20;63.20;;;;;;4976334;28;20223;-74
2021/05/08 05:28:43;;;;;;;2.10;1.17;;;15.10;60.10;;;;;;4976402;28;20183;-74
2021/05/08 05:31:08;;;;;;;1.23;1.13;;;16.30;57.20;;;;;;4976589;28;20189;-74
2021/05/08 05:33:34;;;;;;;4.20;1.60;;;17.00;52.00;;;;;;4976341;28;20220;-74
2021/05/08 05:36:00;;;;;;;2.00;1.20;;;16.90;50.60;;;;;;4976160;28;20175;-74
2021/05/08 05:38:25;;;;;;;1.53;1.00;;;16.20;49.70;;;;;;4976281;28;20178;-74
2021/05/08 05:40:52;;;;;;;2.03;1.83;;;15.40;51.00;;;;;;4976055;28;20191;-74
2021/05/08 05:43:19;;;;;;;1.47;1.33;;;14.70;52.40;;;;;;4976412;28;20252;-74
2021/05/08 05:45:44;;;;;;;1.73;1.63;;;14.20;53.70;;;;;;4975966;28;20753;-74
2021/05/08 05:48:10;;;;;;;2.40;2.00;;;13.80;55.00;;;;;;4976005;28;20396;-74
2021/05/08 05:50:41;;;;;;;2.87;2.27;;;13.60;55.80;;;;;;4976044;28;20256;-74
2021/05/08 05:53:07;;;;;;;4.40;2.30;;;13.70;56.20;;;;;;4975968;28;20157;-74
2021/05/08 05:55:33;;;;;;;2.17;1.83;;;13.70;56.50;;;;;;4975963;28;20462;-74
2021/05/08 05:57:59;;;;;;;2.50;1.60;;;13.80;56.40;;;;;;4974728;28;20492;-74
2021/05/08 06:00:25;;;;;;;2.73;1.97;;;14.50;57.10;;;;;;4975738;28;20608;-74
2021/05/08 06:02:50;;;;;;;2.13;1.93;;;16.40;54.20;;;;;;4975721;28;20257;-74
2021/05/08 06:05:16;;;;;;;2.53;2.33;;;18.40;49.20;;;;;;4975701;28;20817;-74
2021/05/08 06:07:42;;;;;;;3.97;2.37;;;20.30;46.90;;;;;;4975649;28;20176;-74
2021/05/08 06:10:10;;;;;;;4.73;3.00;;;22.10;43.70;;;;;;4975645;28;20208;-74
2021/05/08 06:12:36;;;;;;;2.90;1.63;;;23.30;39.60;;;;;;4975412;28;20200;-74
2021/05/08 06:15:03;;;;;;;2.30;1.73;;;24.20;37.10;;;;;;4975478;28;20417;-74
2021/05/08 06:17:29;;;;;;;6.70;3.40;;;24.10;36.10;;;;;;4975624;28;20416;-74
2021/05/08 06:19:54;;;;;;;9.63;5.20;;;24.30;36.40;;;;;;4975359;28;20860;-74
2021/05/08 06:22:20;;;;;;;8.60;5.63;;;24.60;36.20;;;;;;4975466;28;20255;-74
2021/05/08 06:24:46;;;;;;;10.80;5.77;;;25.00;35.30;;;;;;4975407;28;20173;-74
2021/05/08 06:27:11;;;;;;;11.27;5.70;;;25.30;34.80;;;;;;4975253;28;20220;-74
2021/05/08 06:29:37;;;;;;;6.50;3.87;;;26.10;34.20;;;;;;4975427;28;20252;-74
2021/05/08 06:32:05;;;;;;;7.67;5.03;;;26.20;33.10;;;;;;4975217;28;20272;-74
2021/05/08 06:34:32;;;;;;;6.10;2.60;;;27.00;33.50;;;;;;4975185;28;20642;-75
2021/05/08 06:37:02;;;;;;;2.53;2.33;;;27.30;31.20;;;;;;4975008;28;20400;-77
2021/05/08 06:39:31;;;;;;;3.17;2.10;;;27.50;31.10;;;;;;4975505;28;20397;-73
2021/05/08 06:41:56;;;;;;;1.37;0.83;;;27.70;31.00;;;;;;4974869;28;20507;-74
2021/05/08 06:44:25;;;;;;;1.47;1.37;;;28.40;31.40;;;;;;4974070;28;20416;-74
2021/05/08 06:46:55;;;;;;;1.90;1.43;;;27.90;30.00;;;;;;4974796;28;20256;-74
2021/05/08 06:49:21;;;;;;;1.53;1.13;;;27.70;31.10;;;;;;4974950;28;20396;-74
2021/05/08 06:51:46;;;;;;;3.73;2.40;;;28.00;31.50;;;;;;4974891;28;20833;-76
2021/05/08 06:54:12;;;;;;;1.33;1.10;;;28.50;31.00;;;;;;4974949;28;20177;-74
2021/05/08 06:56:37;;;;;;;1.10;1.10;;;29.40;30.00;;;;;;4975035;28;20665;-75
2021/05/08 06:59:04;;;;;;;2.87;2.20;;;29.00;29.10;;;;;;4974854;28;20665;-76
2021/05/08 07:01:29;;;;;;;2.00;1.10;;;28.70;29.50;;;;;;4974537;28;20209;-76
2021/05/08 07:03:56;;;;;;;3.37;1.60;;;28.40;28.90;;;;;;4974477;28;20413;-74
2021/05/08 07:06:24;;;;;;;1.37;1.27;;;28.00;29.40;;;;;;4974581;28;20219;-76
2021/05/08 07:08:50;;;;;;;1.13;1.13;;;27.60;30.00;;;;;;4974718;28;20401;-76
2021/05/08 07:11:15;;;;;;;1.17;1.07;;;27.60;30.00;;;;;;4974616;28;20783;-75
2021/05/08 07:13:41;;;;;;;0.70;0.70;;;28.00;30.20;;;;;;4974653;28;20179;-75
2021/05/08 07:16:06;;;;;;;0.70;0.70;;;28.60;29.40;;;;;;4974478;28;20646;-75
2021/05/08 07:18:32;;;;;;;0.87;0.80;;;28.60;29.00;;;;;;4974555;28;20252;-75
2021/05/08 07:20:58;;;;;;;0.93;0.80;;;28.00;28.60;;;;;;4974563;28;20223;-75
2021/05/08 07:23:23;;;;;;;0.80;0.80;;;27.30;29.30;;;;;;4973781;28;20639;-76
2021/05/08 07:25:49;;;;;;;1.60;1.20;;;26.50;30.10;;;;;;4974307;28;20168;-77
2021/05/08 07:28:17;;;;;;;1.30;0.90;;;26.10;31.10;;;;;;4974557;28;20350;-76
2021/05/08 07:30:44;;;;;;;0.70;0.50;;;25.70;31.70;;;;;;4974546;28;20595;-75
2021/05/08 07:33:14;;;;;;;0.63;0.63;;;25.30;32.70;;;;;;4974380;28;20412;-74
2021/05/08 07:35:41;;;;;;;1.00;1.00;;;24.60;32.40;;;;;;4974422;28;20415;-74
2021/05/08 07:38:08;;;;;;;0.70;0.70;;;24.20;32.70;;;;;;4974518;28;20419;-76
2021/05/08 07:40:35;;;;;;;1.00;0.90;;;24.10;33.60;;;;;;4974414;28;20420;-76
2021/05/08 07:43:01;;;;;;;0.90;0.90;;;24.80;33.90;;;;;;4974208;28;20917;-75
2021/05/08 07:45:28;;;;;;;1.10;0.90;;;25.50;32.90;;;;;;4974371;28;20479;-75
2021/05/08 07:47:54;;;;;;;0.57;0.57;;;24.40;32.70;;;;;;4974256;28;20436;-76
2021/05/08 07:50:20;;;;;;;0.97;0.97;;;23.90;33.90;;;;;;4974338;28;20506;-75
2021/05/08 07:52:46;;;;;;;0.77;0.70;;;24.20;33.80;;;;;;4974148;28;20466;-75
2021/05/08 07:55:12;;;;;;;0.50;0.50;;;24.50;34.50;;;;;;4974193;28;20398;-75
2021/05/08 07:57:38;;;;;;;0.70;0.70;;;25.20;33.50;;;;;;4973114;28;20209;-75
2021/05/08 08:00:07;;;;;;;0.80;0.67;;;25.20;32.70;;;;;;4974053;28;20193;-76
2021/05/08 08:02:33;;;;;;;0.80;0.60;;;24.60;31.90;;;;;;4974171;28;20967;-75
2021/05/08 08:04:59;;;;;;;0.53;0.53;;;24.20;33.30;;;;;;4974223;28;20411;-76
2021/05/08 08:07:24;;;;;;;2.83;0.90;;;24.20;33.30;;;;;;4973978;28;20487;-76
2021/05/08 08:09:50;;;;;;;0.60;0.60;;;23.60;34.10;;;;;;4974279;28;20256;-77
2021/05/08 08:12:16;;;;;;;0.93;0.73;;;23.50;33.60;;;;;;4973976;28;20256;-76
2021/05/08 08:14:41;;;;;;;0.60;0.53;;;23.90;33.80;;;;;;4974066;28;20177;-74
2021/05/08 08:17:07;;;;;;;0.70;0.70;;;23.30;32.90;;;;;;4973946;28;20643;-76
2021/05/08 08:19:32;;;;;;;0.50;0.50;;;21.30;35.10;;;;;;4974123;28;20646;-76
2021/05/08 08:21:59;;;;;;;0.60;0.60;;;20.40;36.80;;;;;;4973626;28;20205;-76
2021/05/08 08:24:25;;;;;;;1.00;0.60;;;21.00;36.90;;;;;;4974182;28;20164;-76
2021/05/08 08:26:51;;;;;;;0.70;0.70;;;21.20;36.40;;;;;;4973802;28;20379;-76
2021/05/08 08:29:16;;;;;;;0.67;0.67;;;22.20;35.40;;;;;;4973942;28;20899;-74
2021/05/08 08:31:43;;;;;;;0.53;0.50;;;22.40;34.70;;;;;;4973814;28;20682;-74
2021/05/08 08:34:09;;;;;;;0.50;0.50;;;22.80;34.40;;;;;;4973966;28;20179;-74
2021/05/08 08:36:34;;;;;;;0.60;0.60;;;23.10;33.80;;;;;;4975770;28;20387;-74
2021/05/08 08:39:00;;;;;;;0.40;0.40;;;23.60;33.10;;;;;;4977484;28;20176;-74
2021/05/08 08:41:26;;;;;;;0.57;0.50;;;23.60;33.00;;;;;;4977283;28;20209;-74
2021/05/08 08:43:52;;;;;;;0.63;0.63;;;22.90;33.50;;;;;;4977651;28;20253;-74
2021/05/08 08:46:19;;;;;;;1.67;0.50;;;22.60;33.30;;;;;;4977077;28;21025;-74
2021/05/08 08:48:46;;;;;;;0.80;0.50;;;22.90;33.30;;;;;;4977216;28;20227;-74
2021/05/08 08:51:14;;;;;;;0.80;0.80;;;23.40;32.80;;;;;;4977004;28;20403;-74
2021/05/08 08:53:40;;;;;;;0.43;0.43;;;24.10;32.70;;;;;;4977021;28;20803;-74
2021/05/08 08:56:06;;;;;;;0.50;0.50;;;24.30;32.20;;;;;;4976858;28;20910;-74
2021/05/08 08:58:37;;;;;;;0.50;0.50;;;23.70;31.80;;;;;;4976948;28;20455;-74
2021/05/08 09:01:05;;;;;;;1.47;0.70;;;22.70;32.00;;;;;;4977010;28;20208;-74
2021/05/08 09:03:31;;;;;;;0.70;0.50;;;21.90;33.30;;;;;;4976860;28;20498;-74
2021/05/08 09:06:00;;;;;;;1.07;0.63;;;21.30;33.50;;;;;;4976690;28;20412;-74
2021/05/08 09:08:26;;;;;;;1.23;0.50;;;22.40;34.50;;;;;;4976994;28;20403;-74
2021/05/08 09:10:52;;;;;;;0.80;0.70;;;23.20;33.10;;;;;;4975546;28;20503;-74
2021/05/08 09:13:21;;;;;;;0.40;0.40;;;23.50;31.80;;;;;;4976678;28;20248;-74
2021/05/08 09:15:49;;;;;;;2.13;0.80;;;24.20;31.20;;;;;;4976319;28;20404;-74
2021/05/08 09:18:35;;;;;;;0.50;0.50;;;24.20;31.00;;;;;;4976529;28;20397;-74
2021/05/08 09:21:05;;;;;;;0.80;0.50;;;23.50;31.00;;;;;;4976525;28;20459;-74
2021/05/08 09:23:33;;;;;;;0.80;0.70;;;23.50;31.90;;;;;;4976479;28;20371;-74
2021/05/08 09:26:04;;;;;;;0.53;0.47;;;23.80;30.10;;;;;;4976177;28;20816;-75
2021/05/08 09:28:31;;;;;;;1.13;0.70;;;23.90;30.30;;;;;;4976493;28;20451;-74
2021/05/08 09:30:58;;;;;;;0.50;0.50;;;23.40;32.60;;;;;;4976457;28;20410;-75
2021/05/08 09:33:26;;;;;;;0.63;0.63;;;23.60;31.10;;;;;;4976313;28;20411;-74
2021/05/08 09:36:08;;;;;;;0.63;0.63;;;24.00;31.40;;;;;;4976109;28;20392;-75
2021/05/08 09:38:39;;;;;;;0.67;0.53;;;24.30;30.60;;;;;;4974981;28;20419;-75
2021/05/08 09:41:07;;;;;;;0.70;0.70;;;24.70;30.80;;;;;;4976232;28;20460;-75
2021/05/08 09:43:34;;;;;;;0.40;0.40;;;24.40;30.00;;;;;;4976198;28;20415;-75
2021/05/08 09:45:59;;;;;;;0.50;0.50;;;23.70;30.80;;;;;;4975665;28;20407;-74
2021/05/08 09:48:39;;;;;;;0.60;0.50;;;23.30;30.20;;;;;;4975950;28;20443;-75
2021/05/08 09:51:25;;;;;;;1.27;0.57;;;23.50;30.20;;;;;;4976093;28;20193;-75
2021/05/08 09:54:03;;;;;;;0.50;0.50;;;23.80;29.70;;;;;;4976106;28;20732;-75
2021/05/08 09:56:33;;;;;;;0.93;0.77;;;24.30;30.60;;;;;;4975759;28;20412;-75
2021/05/08 09:59:28;;;;;;;0.50;0.50;;;23.30;30.00;;;;;;4975867;28;20400;-75
2021/05/08 10:02:03;;;;;;;0.60;0.60;;;23.60;30.40;;;;;;4968674;28;20793;-75
2021/05/08 10:04:29;;;;;;;0.50;0.50;;;24.70;29.40;;;;;;4975669;28;20446;-75
2021/05/08 10:07:08;;;;;;;0.80;0.60;;;25.00;29.30;;;;;;4975083;28;20383;-75
2021/05/08 10:09:35;;;;;;;0.50;0.40;;;24.90;28.40;;;;;;4974800;28;20379;-74
2021/05/08 10:12:04;;;;;;;1.17;0.60;;;24.40;28.70;;;;;;4974832;28;20515;-74
2021/05/08 10:14:37;;;;;;;0.50;0.50;;;24.30;28.50;;;;;;4975982;28;20433;-74
2021/05/08 10:17:03;;;;;;;0.50;0.50;;;23.80;28.40;;;;;;4974943;28;20868;-74
2021/05/08 10:19:32;;;;;;;0.70;0.70;;;23.00;28.60;;;;;;4975065;28;20411;-75
2021/05/08 10:22:01;;;;;;;0.40;0.40;;;22.70;29.60;;;;;;4975262;28;20220;-75
2021/05/08 10:24:28;;;;;;;0.60;0.60;;;22.60;29.70;;;;;;4975119;28;20406;-75
2021/05/08 10:26:58;;;;;;;1.23;0.50;;;22.40;29.50;;;;;;4973807;28;20605;-75
2021/05/08 10:29:30;;;;;;;0.50;0.50;;;22.60;29.90;;;;;;4975408;28;20401;-75
2021/05/08 10:31:59;;;;;;;0.50;0.40;;;23.40;29.60;;;;;;4975022;28;20929;-75
2021/05/08 10:34:39;;;;;;;0.50;0.50;;;23.20;28.30;;;;;;4975211;28;20406;-74
2021/05/08 10:37:12;;;;;;;0.73;0.50;;;22.80;29.50;;;;;;4975159;28;20412;-75
2021/05/08 10:39:50;;;;;;;0.47;0.47;;;22.50;28.70;;;;;;4975221;28;20386;-75
2021/05/08 10:42:37;;;;;;;0.50;0.50;;;21.80;29.50;;;;;;4975081;28;20518;-75
2021/05/08 10:45:19;;;;;;;0.40;0.40;;;21.30;30.40;;;;;;4974815;28;20410;-75
2021/05/08 10:47:58;;;;;;;0.93;0.63;;;20.60;29.80;;;;;;4975130;28;20400;-75
2021/05/08 10:50:27;;;;;;;0.77;0.70;;;20.30;30.20;;;;;;4975060;28;20403;-75
2021/05/08 10:53:14;;;;;;;0.40;0.40;;;20.20;31.90;;;;;;4974838;28;20436;-75
2021/05/08 10:55:57;;;;;;;0.80;0.57;;;20.00;31.60;;;;;;4974855;28;20419;-75
2021/05/08 10:58:23;;;;;;;0.50;0.40;;;19.70;31.60;;;;;;4974265;28;20439;-75
2021/05/08 11:00:49;;;;;;;0.40;0.40;;;19.00;31.60;;;;;;4974627;28;20427;-75
2021/05/08 11:03:16;;;;;;;0.50;0.50;;;18.70;32.60;;;;;;4974741;28;20313;-75
2021/05/08 11:05:56;;;;;;;0.50;0.50;;;18.40;33.00;;;;;;4974478;28;20489;-75
2021/05/08 11:08:24;;;;;;;2.00;0.90;;;18.00;33.30;;;;;;4974631;28;20847;-75
2021/05/08 11:10:57;;;;;;;0.50;0.50;;;18.00;36.50;;;;;;4974662;28;20414;-75
2021/05/08 11:13:25;;;;;;;0.50;0.50;;;18.00;35.20;;;;;;4974674;28;20441;-75
2021/05/08 11:15:54;;;;;;;0.40;0.40;;;18.30;34.30;;;;;;4974585;28;20434;-75
2021/05/08 11:18:38;;;;;;;0.77;0.73;;;18.70;34.70;;;;;;4974578;28;20412;-75
2021/05/08 11:21:18;;;;;;;0.70;0.70;;;18.80;35.10;;;;;;4974734;28;20486;-75
2021/05/08 11:23:47;;;;;;;0.60;0.50;;;18.70;34.10;;;;;;4974672;28;20415;-75
2021/05/08 11:26:42;;;;;;;0.40;0.40;;;18.30;34.00;;;;;;4973482;28;20471;-75
2021/05/08 11:29:21;;;;;;;0.70;0.57;;;18.10;35.90;;;;;;4972296;28;20426;-74
2021/05/08 11:31:50;;;;;;;0.50;0.50;;;17.80;35.80;;;;;;4973154;28;20475;-75
2021/05/08 11:34:20;;;;;;;0.60;0.60;;;17.70;35.10;;;;;;4974316;28;20444;-75
2021/05/08 11:36:49;;;;;;;0.50;0.50;;;17.90;37.40;;;;;;4974231;28;20846;-75
2021/05/08 11:39:25;;;;;;;0.80;0.80;;;17.90;36.10;;;;;;4974322;28;20461;-75
2021/05/08 11:41:56;;;;;;;0.93;0.50;;;18.10;34.50;;;;;;4974537;28;20448;-75
2021/05/08 11:44:29;;;;;;;0.50;0.50;;;18.20;34.50;;;;;;4974445;28;20390;-75
2021/05/08 11:47:03;;;;;;;1.43;0.50;;;18.30;35.20;;;;;;4973958;28;20409;-75
2021/05/08 11:49:32;;;;;;;0.40;0.40;;;18.50;34.20;;;;;;4974307;28;20766;-75
2021/05/08 11:51:59;;;;;;;0.47;0.47;;;18.50;36.50;;;;;;4974056;28;20480;-74
2021/05/08 11:54:26;;;;;;;0.50;0.50;;;18.50;36.30;;;;;;4974326;28;20417;-75
2021/05/08 11:56:53;;;;;;;0.63;0.57;;;18.30;34.60;;;;;;4974197;28;20405;-75
2021/05/08 11:59:33;;;;;;;0.40;0.40;;;17.90;35.20;;;;;;4973854;28;20440;-75
2021/05/08 12:02:27;;;;;;;0.70;0.63;;;17.60;35.80;;;;;;4973350;28;20473;-74
2021/05/08 12:04:56;;;;;;;0.80;0.53;;;17.90;38.50;;;;;;4957580;28;20428;-75
2021/05/08 12:07:23;;;;;;;2.10;0.50;;;18.30;38.50;;;;;;4974056;28;20571;-74
2021/05/08 12:09:49;;;;;;;0.47;0.47;;;18.30;36.40;;;;;;4975393;28;20406;-74
2021/05/08 12:12:15;;;;;;;0.50;0.50;;;18.20;37.10;;;;;;4977566;28;20665;-74
2021/05/08 12:14:42;;;;;;;0.67;0.50;;;18.00;38.00;;;;;;4977835;28;20403;-74
2021/05/08 12:17:09;;;;;;;0.70;0.70;;;18.00;38.00;;;;;;4977678;28;20570;-74
2021/05/08 12:19:37;;;;;;;1.27;0.60;;;17.90;38.00;;;;;;4977712;28;20898;-74
2021/05/08 12:22:03;;;;;;;1.13;0.60;;;17.90;39.30;;;;;;4977651;28;20453;-74
2021/05/08 12:24:29;;;;;;;0.63;0.50;;;17.70;38.80;;;;;;4977567;28;20408;-74
2021/05/08 12:26:55;;;;;;;0.60;0.60;;;17.50;39.00;;;;;;4976066;28;20419;-73
2021/05/08 12:29:20;;;;;;;1.07;0.63;;;17.50;39.30;;;;;;4977822;28;20522;-73
2021/05/08 12:31:47;;;;;;;0.60;0.50;;;17.40;39.90;;;;;;4977119;28;20247;-73
2021/05/08 12:34:16;;;;;;;0.70;0.70;;;17.50;40.30;;;;;;4977623;28;20169;-73
2021/05/08 12:37:02;;;;;;;0.50;0.50;;;17.40;40.80;;;;;;4977320;28;20421;-73
2021/05/08 12:39:28;;;;;;;0.40;0.40;;;17.40;40.50;;;;;;4976296;28;20932;-73
2021/05/08 12:42:03;;;;;;;0.47;0.47;;;17.40;41.20;;;;;;4977426;28;20454;-73
2021/05/08 12:44:34;;;;;;;2.10;0.50;;;17.40;41.60;;;;;;4977155;28;20407;-73
2021/05/08 12:47:16;;;;;;;0.70;0.70;;;17.40;41.60;;;;;;4977270;28;20411;-73
2021/05/08 12:50:01;;;;;;;0.90;0.50;;;17.40;42.00;;;;;;4977504;28;20401;-73
2021/05/08 12:52:26;;;;;;;0.53;0.53;;;17.40;41.80;;;;;;4977420;28;20474;-73
2021/05/08 12:54:52;;;;;;;0.90;0.50;;;17.60;42.50;;;;;;4977077;28;20432;-73